Terminal Aerodrome Forecast
Issued by NWS

Home | Current Version | Previous Version | Text Only | Print | Product List | Glossary On
Versions: 1 2 3 4 5 6 7 8 9 10 11 12 13 14 15 16 17 18 19 20 21 22 23 24 25 26
591
FTUS43 KAPX 191720
TAFTVC
TAF
KTVC 191720Z 1918/2018 20006KT 3SM BR OVC006
      TEMPO 1921/2001 P6SM NSW SCT008
     FM200100 00000KT P6SM SCT008 OVC150
     FM200900 00000KT 3SM BR SCT008 OVC100
     FM201500 00000KT 3SM -RA BR BKN008 OVC080=

USA.gov is the U.S. government's official web portal to all federal, state and local government web resources and services.